Terminal Aerodrome Forecast
Issued by NWS

Current Version | Previous Version | Text Only | Print | Product List | Glossary Off
Versions: 1 2 3 4 5 6 7 8 9 10 11 12 13

000
FTUS41 KRNK 111120
TAFLWB
TAF
KLWB 111120Z 1112/1212 27006KT P6SM FEW250
     FM120300 00000KT P6SM BKN150 WS020/23030KT
     FM120800 25004KT P6SM SCT200
     FM120900 25005KT P6SM SCT045
     FM121000 25008KT P6SM BKN035=

USA.gov is the U.S. government's official web portal to all federal, state and local government web resources and services.